createdAt,value
2017-12-06T20:00:11.133Z,113.97
2017-12-06T20:02:40.663Z,114.27
2017-12-06T20:05:11.539Z,117.20
2017-12-06T20:07:40.616Z,105.10
2017-12-06T20:10:09.648Z,105.70
2017-12-06T20:12:39.627Z,109.03
2017-12-06T20:15:08.655Z,103.87
2017-12-06T20:17:38.137Z,97.07
2017-12-06T20:20:07.088Z,97.30
2017-12-06T20:22:36.137Z,93.53
2017-12-06T20:25:05.195Z,100.93
2017-12-06T20:27:34.249Z,93.53
2017-12-06T20:30:03.356Z,98.33
2017-12-06T20:32:32.398Z,90.13
2017-12-06T20:35:01.431Z,90.17
2017-12-06T20:37:30.494Z,91.47
2017-12-06T20:42:44.894Z,94.10
2017-12-06T20:45:15.523Z,89.70
2017-12-06T20:53:14.828Z,92.50
2017-12-06T20:55:45.520Z,87.97
2017-12-06T20:58:15.470Z,91.10
2017-12-06T21:00:48.071Z,86.37
2017-12-06T21:03:21.315Z,78.53
2017-12-06T21:05:50.467Z,86.70
2017-12-06T21:08:23.528Z,80.33
2017-12-06T21:10:55.624Z,77.57
2017-12-06T21:13:24.635Z,79.63
2017-12-06T21:15:53.565Z,74.80
2017-12-06T21:18:22.500Z,66.73
2017-12-06T21:20:51.435Z,77.63
2017-12-06T21:23:20.710Z,72.23
2017-12-06T21:25:49.741Z,75.10
2017-12-06T21:28:18.827Z,67.87
2017-12-06T21:30:47.803Z,71.93
2017-12-06T21:33:16.835Z,75.20
2017-12-06T21:35:45.833Z,70.90
2017-12-06T21:38:14.771Z,76.20
2017-12-06T21:40:43.705Z,67.17
2017-12-06T21:43:12.707Z,66.70
2017-12-06T21:45:41.665Z,61.10
2017-12-06T21:48:10.708Z,65.50
2017-12-06T21:50:39.761Z,65.70
2017-12-06T21:53:08.834Z,68.87
2017-12-06T21:55:37.795Z,63.53
2017-12-06T21:58:06.772Z,67.90
2017-12-06T22:00:35.717Z,61.40
2017-12-06T22:03:04.699Z,68.67
2017-12-06T22:05:33.745Z,62.03
2017-12-06T22:08:06.024Z,64.13
2017-12-06T22:10:35.001Z,67.77
2017-12-06T22:13:03.980Z,68.57
2017-12-06T22:15:32.976Z,59.13
2017-12-06T22:18:01.977Z,61.23
2017-12-06T22:20:30.966Z,68.60
2017-12-06T22:22:59.885Z,63.40
2017-12-06T22:25:28.855Z,66.10
2017-12-06T22:27:57.783Z,68.47
2017-12-06T22:30:26.765Z,66.20
2017-12-06T22:32:55.714Z,71.13
2017-12-06T22:35:24.654Z,66.03
2017-12-06T22:37:53.585Z,79.77
2017-12-06T22:40:22.540Z,72.27
2017-12-06T22:42:51.468Z,72.20
2017-12-06T22:45:20.399Z,61.77
2017-12-06T22:47:49.383Z,64.53
2017-12-06T22:50:18.421Z,65.40
2017-12-06T22:52:47.506Z,63.93
2017-12-06T22:55:16.571Z,68.87
2017-12-06T22:57:45.665Z,68.50
2017-12-06T23:00:14.721Z,66.47
2017-12-06T23:02:50.051Z,66.10
2017-12-06T23:05:25.665Z,69.47
2017-12-06T23:07:54.640Z,68.67
2017-12-06T23:10:23.623Z,73.60
2017-12-06T23:12:52.907Z,62.57
2017-12-06T23:15:26.377Z,62.73
2017-12-06T23:17:57.290Z,67.87
2017-12-06T23:20:27.252Z,64.83
2017-12-06T23:22:56.168Z,59.40
2017-12-06T23:25:25.099Z,56.97
2017-12-06T23:27:54.034Z,60.73
2017-12-06T23:30:24.011Z,54.47
2017-12-06T23:32:59.413Z,52.90
2017-12-06T23:43:56.933Z,50.30
2017-12-06T23:46:25.837Z,48.40
2017-12-06T23:48:54.780Z,51.90
2017-12-06T23:51:23.737Z,53.47
2017-12-06T23:53:52.633Z,50.30
2017-12-06T23:56:21.560Z,57.67
